Time;durP1;ratioP1;P1;durP2;ratioP2;P2;SDS_P1;SDS_P2;PMS_P1;PMS_P2;Temp;Humidity;BMP_temperature;BMP_pressure;BME280_temperature;BME280_humidity;BME280_pressure;Samples;Min_cycle;Max_cycle;Signal;HPM_P1;HPM_P2
2022/10/14 00:02:19;;;;;;;13.32;12.10;;;10.30;1.00;;;;;;5115533;28;20191;-90
2022/10/14 00:04:46;;;;;;;16.20;14.60;;;10.30;1.00;;;;;;5114850;28;20272;-91
2022/10/14 00:07:13;;;;;;;;;;;10.30;1.00;;;;;;5115583;28;20213;-90
2022/10/14 00:09:41;;;;;;;32.30;17.60;;;10.20;1.00;;;;;;5114241;28;20915;-89
2022/10/14 00:12:07;;;;;;;;;;;10.20;1.00;;;;;;5115553;28;20191;-90
2022/10/14 00:14:36;;;;;;;35.85;18.88;;;10.20;1.00;;;;;;5114076;28;20427;-89
2022/10/14 00:17:03;;;;;;;18.75;14.68;;;10.20;1.00;;;;;;5115296;28;20202;-90
2022/10/14 00:19:30;;;;;;;16.13;13.63;;;10.20;1.00;;;;;;5115236;28;20643;-90
2022/10/14 00:21:57;;;;;;;17.17;14.20;;;10.20;1.00;;;;;;5114636;28;20678;-90
2022/10/14 00:24:24;;;;;;;18.20;14.48;;;10.10;1.00;;;;;;5114981;28;20657;-91
2022/10/14 00:26:51;;;;;;;17.33;14.30;;;10.10;1.00;;;;;;5115096;28;20197;-89
2022/10/14 00:29:19;;;;;;;17.13;14.52;;;10.10;1.00;;;;;;5115169;28;20201;-90
2022/10/14 00:31:50;;;;;;;16.40;14.07;;;10.10;1.00;;;;;;5115304;28;20198;-90
2022/10/14 00:34:17;;;;;;;14.50;12.98;;;10.10;1.00;;;;;;5098492;28;20207;-91
2022/10/14 00:36:44;;;;;;;16.35;14.02;;;10.10;1.00;;;;;;5113585;28;20238;-90
2022/10/14 00:39:12;;;;;;;17.50;14.60;;;10.00;1.00;;;;;;5123508;27;20190;-91
2022/10/14 00:41:39;;;;;;;15.77;13.65;;;10.00;1.00;;;;;;5134980;27;20212;-91
2022/10/14 00:44:27;;;;;;;17.20;14.18;;;10.00;1.00;;;;;;5135324;27;20200;-91
2022/10/14 00:46:56;;;;;;;15.38;13.57;;;10.00;1.00;;;;;;5129899;27;20190;-91
2022/10/14 00:49:26;;;;;;;15.93;13.85;;;9.90;1.00;;;;;;5114698;28;20200;-90
2022/10/14 00:51:58;;;;;;;14.38;12.88;;;9.90;1.00;;;;;;5114500;28;20194;-91
2022/10/14 00:54:30;;;;;;;16.02;14.15;;;9.90;1.00;;;;;;5094346;28;20203;-91
2022/10/14 00:56:57;;;;;;;15.23;13.55;;;9.80;1.00;;;;;;5096941;28;20206;-91
2022/10/14 00:59:24;;;;;;;16.05;14.23;;;9.80;1.00;;;;;;5114530;28;20198;-91
2022/10/14 01:01:51;;;;;;;15.40;13.73;;;9.80;1.00;;;;;;5114686;28;20260;-91
2022/10/14 01:04:20;;;;;;;14.80;13.25;;;9.80;1.00;;;;;;5114357;28;20191;-91
2022/10/14 01:06:57;;;;;;;14.85;13.32;;;9.80;1.00;;;;;;5114458;28;20197;-91
2022/10/14 01:09:29;;;;;;;14.75;13.13;;;9.80;1.00;;;;;;5109614;28;20198;-91
2022/10/14 01:12:08;;;;;;;15.52;13.90;;;9.90;1.00;;;;;;5094247;28;20198;-91
2022/10/14 01:14:48;;;;;;;14.38;12.95;;;9.90;1.00;;;;;;5094058;28;20206;-91
2022/10/14 01:17:21;;;;;;;14.23;12.75;;;9.90;1.00;;;;;;5093196;28;20187;-91
2022/10/14 01:20:27;;;;;;;15.05;13.52;;;10.00;1.00;;;;;;5093843;28;20194;-91
2022/10/14 01:23:04;;;;;;;14.48;13.02;;;10.10;1.00;;;;;;5075695;28;20209;-91
2022/10/14 01:25:37;;;;;;;13.95;12.55;;;10.10;1.00;;;;;;5094400;28;20604;-91
2022/10/14 01:28:23;;;;;;;15.18;13.57;;;10.10;1.00;;;;;;5093804;28;20654;-91
2022/10/14 01:30:56;;;;;;;14.25;12.80;;;10.20;1.00;;;;;;5102047;28;20186;-91
2022/10/14 01:33:26;;;;;;;14.35;12.95;;;10.20;1.00;;;;;;5113945;28;20174;-90
2022/10/14 01:36:02;;;;;;;13.82;12.45;;;10.20;1.00;;;;;;5114037;28;20225;-89
2022/10/14 01:38:32;;;;;;;14.68;13.20;;;10.20;1.00;;;;;;5114175;28;20218;-91
2022/10/14 01:41:05;;;;;;;14.30;12.88;;;10.20;1.00;;;;;;5113973;28;20250;-91
2022/10/14 01:43:33;;;;;;;14.10;12.75;;;10.30;1.00;;;;;;5114052;28;20182;-91
2022/10/14 01:46:05;;;;;;;13.65;12.35;;;10.30;1.00;;;;;;5113541;28;20198;-90
2022/10/14 01:48:35;;;;;;;14.32;12.95;;;10.30;1.00;;;;;;5113883;28;20284;-91
2022/10/14 01:51:06;;;;;;;16.25;14.55;;;10.30;1.00;;;;;;5114169;28;20182;-91
2022/10/14 01:53:39;;;;;;;14.70;13.25;;;10.30;1.00;;;;;;5113514;28;20228;-90
2022/10/14 01:56:07;;;;;;;13.38;12.10;;;10.30;1.00;;;;;;5113547;28;20210;-90
2022/10/14 01:58:36;;;;;;;14.23;12.82;;;10.30;1.00;;;;;;5113563;28;20203;-91
2022/10/14 02:01:06;;;;;;;16.35;14.02;;;10.30;1.00;;;;;;5113643;28;20262;-90
2022/10/14 02:03:41;;;;;;;15.20;13.45;;;10.40;1.00;;;;;;5113940;28;20198;-90
2022/10/14 02:06:14;;;;;;;14.30;12.80;;;10.40;1.00;;;;;;5113327;28;20190;-91
2022/10/14 02:08:55;;;;;;;15.18;13.50;;;10.40;1.00;;;;;;5113381;28;20178;-90
2022/10/14 02:11:23;;;;;;;15.60;13.93;;;10.40;1.00;;;;;;5113183;28;20171;-91
2022/10/14 02:14:07;;;;;;;16.25;13.98;;;10.40;1.00;;;;;;5113345;28;20202;-90
2022/10/14 02:16:40;;;;;;;14.63;13.02;;;10.40;1.00;;;;;;5113591;28;20326;-90
2022/10/14 02:19:22;;;;;;;15.23;13.50;;;10.40;1.00;;;;;;5113569;28;20197;-89
2022/10/14 02:21:57;;;;;;;15.15;13.55;;;10.30;1.00;;;;;;5113460;28;20181;-90
2022/10/14 02:24:30;;;;;;;15.45;13.73;;;10.30;1.00;;;;;;5113275;28;20523;-90
2022/10/14 02:27:01;;;;;;;14.18;12.70;;;10.20;1.00;;;;;;5114049;28;20250;-91
2022/10/14 02:29:30;;;;;;;15.18;13.57;;;10.20;1.00;;;;;;5117295;28;20195;-90
2022/10/14 02:32:02;;;;;;;15.43;13.75;;;10.10;1.00;;;;;;5117380;28;20197;-89
2022/10/14 02:34:29;;;;;;;14.80;13.27;;;10.10;1.00;;;;;;5117345;28;20567;-90
2022/10/14 02:36:56;;;;;;;15.38;13.75;;;10.00;1.00;;;;;;5116826;28;20222;-91
2022/10/14 02:39:30;;;;;;;14.50;13.00;;;10.00;1.00;;;;;;5117414;28;20190;-91
2022/10/14 02:41:57;;;;;;;14.32;12.90;;;9.90;1.00;;;;;;5117389;28;20183;-90
2022/10/14 02:44:25;;;;;;;13.75;12.48;;;9.80;1.00;;;;;;5116669;28;20682;-91
2022/10/14 02:46:54;;;;;;;13.75;12.48;;;9.80;1.00;;;;;;5117299;28;20202;-90
2022/10/14 02:49:23;;;;;;;13.48;12.18;;;9.70;1.00;;;;;;5117120;28;20206;-90
2022/10/14 02:51:50;;;;;;;13.75;12.50;;;9.60;1.00;;;;;;5117059;28;20209;-91
2022/10/14 02:54:17;;;;;;;13.07;11.88;;;9.50;1.00;;;;;;5117026;28;20198;-90
2022/10/14 02:56:44;;;;;;;18.05;16.30;;;9.40;1.00;;;;;;5116992;28;20206;-90
2022/10/14 02:59:11;;;;;;;15.80;14.40;;;9.40;1.00;;;;;;5117145;28;20273;-91
2022/10/14 03:01:38;;;;;;;14.65;13.30;;;9.30;1.00;;;;;;5109784;28;20207;-90
2022/10/14 03:04:06;;;;;;;17.65;15.90;;;9.30;1.00;;;;;;5096920;28;20201;-91
2022/10/14 03:06:34;;;;;;;19.40;17.50;;;9.20;1.00;;;;;;5110256;28;20205;-90
2022/10/14 03:09:01;;;;;;;14.83;13.47;;;9.20;1.00;;;;;;5116622;28;20110;-91
2022/10/14 03:11:28;;;;;;;;;;;9.20;1.00;;;;;;5117031;28;20206;-91
2022/10/14 03:13:55;;;;;;;27.77;16.55;;;9.10;1.00;;;;;;5115864;28;20419;-90
2022/10/14 03:16:22;;;;;;;;;;;9.10;1.00;;;;;;5116933;28;20229;-90
2022/10/14 03:18:49;;;;;;;31.38;17.40;;;9.10;1.00;;;;;;5115752;28;20752;-90
2022/10/14 03:21:16;;;;;;;15.20;13.75;;;9.10;1.00;;;;;;5116698;28;20201;-90
2022/10/14 03:23:45;;;;;;;15.10;13.70;;;9.10;1.00;;;;;;5116765;28;20197;-91
2022/10/14 03:26:12;;;;;;;;;;;9.10;1.00;;;;;;5116888;28;20193;-91
2022/10/14 03:28:39;;;;;;;;;;;9.10;1.00;;;;;;5109036;28;20414;-91
2022/10/14 03:31:06;;;;;;;;;;;9.00;1.00;;;;;;5117172;28;20183;-89
2022/10/14 03:33:33;;;;;;;20.23;14.60;;;9.00;1.00;;;;;;5115762;28;20430;-90
2022/10/14 03:36:00;;;;;;;;;;;9.00;1.00;;;;;;5117026;28;20531;-91
2022/10/14 03:38:27;;;;;;;19.80;14.55;;;9.00;1.00;;;;;;5115071;28;20428;-91
2022/10/14 03:40:55;;;;;;;;;;;9.00;1.00;;;;;;5117223;28;20205;-91
2022/10/14 03:43:22;;;;;;;;;;;9.00;1.00;;;;;;5116899;28;19926;-92
2022/10/14 03:45:49;;;;;;;18.65;14.05;;;9.00;1.00;;;;;;5115691;28;20899;-92
2022/10/14 03:48:16;;;;;;;;;;;9.00;1.00;;;;;;5116805;28;20229;-91
2022/10/14 03:50:43;;;;;;;;;;;9.00;1.00;;;;;;5116886;28;20353;-91
2022/10/14 03:53:11;;;;;;;17.75;14.18;;;9.00;1.00;;;;;;5116597;28;20455;-91
2022/10/14 03:55:38;;;;;;;;;;;9.10;1.00;;;;;;5117344;28;20137;-92
2022/10/14 03:58:07;;;;;;;;;;;9.10;9.70;;;;;;5116760;28;19927;-92
2022/10/14 04:00:35;;;;;;;17.85;13.98;;;9.10;28.00;;;;;;5114641;28;20403;-92
2022/10/14 04:03:02;;;;;;;;;;;9.20;7.30;;;;;;5116734;28;20206;-92
2022/10/14 04:05:32;;;;;;;19.05;14.00;;;9.20;19.00;;;;;;5115385;28;20400;-91
2022/10/14 04:07:59;;;;;;;;;;;9.20;69.40;;;;;;5116912;28;20259;-92
2022/10/14 04:10:27;;;;;;;20.25;14.40;;;9.20;83.50;;;;;;5114984;28;20432;-91
2022/10/14 04:12:54;;;;;;;;;;;9.30;1.00;;;;;;5116438;28;20206;-91
2022/10/14 04:15:23;;;;;;;15.63;12.88;;;9.30;7.70;;;;;;5115009;28;20420;-91
2022/10/14 04:17:50;;;;;;;;;;;9.30;18.30;;;;;;5116049;28;20195;-91
2022/10/14 04:20:17;;;;;;;18.13;13.70;;;9.30;6.10;;;;;;5115132;28;20449;-92
2022/10/14 04:22:44;;;;;;;;;;;9.30;1.00;;;;;;5116377;28;20619;-89
2022/10/14 04:25:11;;;;;;;22.27;14.88;;;9.40;1.00;;;;;;5114996;28;20420;-92
2022/10/14 04:27:38;;;;;;;;;;;9.40;1.00;;;;;;5116407;28;20207;-91
2022/10/14 04:30:06;;;;;;;15.20;12.88;;;9.40;1.00;;;;;;5114997;28;20422;-91
2022/10/14 04:32:35;;;;;;;;;;;9.40;5.60;;;;;;5115819;28;20203;-91
2022/10/14 04:35:02;;;;;;;;;;;9.40;1.00;;;;;;5115998;28;20398;-92
2022/10/14 04:37:30;;;;;;;19.88;14.68;;;9.30;1.00;;;;;;5114218;28;20434;-92
2022/10/14 04:39:57;;;;;;;;;;;9.30;1.00;;;;;;5116041;28;20230;-92
2022/10/14 04:42:24;;;;;;;;;;;9.30;1.00;;;;;;5115971;28;19920;-91
2022/10/14 04:44:51;;;;;;;28.23;16.65;;;9.20;1.00;;;;;;5114647;28;20423;-91
2022/10/14 04:47:18;;;;;;;;;;;9.10;1.00;;;;;;5115802;28;20191;-91
2022/10/14 04:49:47;;;;;;;32.25;17.60;;;9.10;1.00;;;;;;5112274;28;20473;-92
2022/10/14 04:52:13;;;;;;;;;;;9.10;1.00;;;;;;5134041;27;20634;-91
2022/10/14 04:54:41;;;;;;;32.90;17.83;;;9.00;1.00;;;;;;5134904;27;20866;-92
2022/10/14 04:57:10;;;;;;;;;;;9.00;1.00;;;;;;5117194;27;20304;-92
2022/10/14 04:59:37;;;;;;;35.65;18.55;;;9.00;1.00;;;;;;5093576;28;20447;-93
2022/10/14 05:02:04;;;;;;;;;;;9.00;1.00;;;;;;5094803;28;20207;-90
2022/10/14 05:04:32;;;;;;;191.95;60.53;;;9.00;1.00;;;;;;5093135;28;20416;-91
2022/10/14 05:07:00;;;;;;;172.03;68.53;;;9.00;1.00;;;;;;5107117;28;20191;-89
2022/10/14 05:09:27;;;;;;;137.37;34.43;;;8.90;1.00;;;;;;5112898;28;20217;-89
2022/10/14 05:11:54;;;;;;;139.07;34.20;;;8.90;1.00;;;;;;5113195;28;20203;-89
2022/10/14 05:14:22;;;;;;;142.50;35.03;;;8.80;1.00;;;;;;5113974;28;20201;-88
2022/10/14 05:16:49;;;;;;;141.50;34.73;;;8.80;1.00;;;;;;5113661;28;20202;-88
2022/10/14 05:19:16;;;;;;;142.33;35.13;;;8.70;1.00;;;;;;5113790;28;20190;-89
2022/10/14 05:21:43;;;;;;;138.40;34.00;;;8.70;1.00;;;;;;5113487;28;20197;-89
2022/10/14 05:24:12;;;;;;;138.57;34.33;;;8.60;1.00;;;;;;5114110;28;20215;-89
2022/10/14 05:26:39;;;;;;;138.70;34.43;;;8.60;1.00;;;;;;5113707;28;20217;-88
2022/10/14 05:29:06;;;;;;;136.27;34.17;;;8.60;1.00;;;;;;5113663;28;20574;-89
2022/10/14 05:31:33;;;;;;;134.37;33.60;;;8.60;1.00;;;;;;5113981;28;20198;-89
2022/10/14 05:37:07;;;;;;;136.90;34.20;;;8.60;1.00;;;;;;5110959;28;20729;-89
2022/10/14 05:39:36;;;;;;;134.87;33.93;;;8.70;43.70;;;;;;5113539;28;20646;-88
2022/10/14 05:42:03;;;;;;;136.87;34.23;;;8.70;34.40;;;;;;5113437;28;20191;-88
2022/10/14 05:44:30;;;;;;;137.27;34.33;;;8.70;99.90;;;;;;5113365;28;20194;-89
2022/10/14 05:46:57;;;;;;;137.53;33.97;;;8.70;99.90;;;;;;5112947;28;20199;-88
2022/10/14 05:49:24;;;;;;;134.23;33.40;;;8.70;20.30;;;;;;5113200;28;20194;-89
2022/10/14 05:51:52;;;;;;;134.53;33.77;;;8.70;84.70;;;;;;5113249;28;20195;-89
2022/10/14 05:54:19;;;;;;;132.87;33.30;;;8.70;83.70;;;;;;5113249;28;20200;-89
2022/10/14 05:56:47;;;;;;;134.17;33.87;;;8.70;25.10;;;;;;5113235;28;20267;-88
2022/10/14 05:59:14;;;;;;;130.00;33.13;;;8.70;57.90;;;;;;5113084;28;20665;-89
2022/10/14 06:01:42;;;;;;;128.43;33.37;;;8.70;91.40;;;;;;5112381;28;20217;-88
2022/10/14 06:04:16;;;;;;;123.80;32.83;;;8.70;99.90;;;;;;5113206;28;20241;-89
2022/10/14 06:06:43;;;;;;;123.23;32.63;;;8.70;99.90;;;;;;5113066;28;20174;-88
2022/10/14 06:12:48;;;;;;;117.17;32.00;;;8.70;99.90;;;;;;5030459;28;20200;-88
2022/10/14 06:15:15;;;;;;;115.53;31.93;;;8.80;99.90;;;;;;5093504;28;20205;-89
2022/10/14 06:17:43;;;;;;;115.60;31.97;;;8.90;99.90;;;;;;5117607;28;20214;-89
2022/10/14 06:20:11;;;;;;;117.87;32.07;;;9.00;99.90;;;;;;5113731;28;20201;-89
2022/10/14 06:26:18;;;;;;;116.50;32.03;;;9.10;99.90;;;;;;4995810;28;20197;-91
2022/10/14 06:28:47;;;;;;;111.20;31.60;;;9.30;99.90;;;;;;5112405;28;20203;-88
2022/10/14 06:31:14;;;;;;;114.80;31.87;;;9.40;99.90;;;;;;5112306;28;20818;-88
2022/10/14 06:33:42;;;;;;;126.03;33.27;;;9.50;99.90;;;;;;5114326;28;20701;-88
2022/10/14 06:36:58;;;;;;;118.10;32.40;;;9.70;99.90;;;;;;5113931;28;20645;-90
2022/10/14 06:39:25;;;;;;;117.00;31.97;;;9.80;99.90;;;;;;5059523;28;20191;-88
2022/10/14 06:46:06;;;;;;;114.33;32.03;;;10.20;99.90;;;;;;4993453;28;20226;-90
2022/10/14 06:52:08;;;;;;;115.67;32.13;;;10.50;99.90;;;;;;4992133;28;20678;-88
2022/10/14 06:54:35;;;;;;;111.03;31.57;;;10.70;99.90;;;;;;5098276;28;20194;-88
2022/10/14 06:57:02;;;;;;;107.80;31.33;;;10.70;99.90;;;;;;5113176;28;20214;-89
2022/10/14 06:59:29;;;;;;;105.43;30.87;;;10.90;99.90;;;;;;5112813;28;20191;-89
2022/10/14 07:01:56;;;;;;;105.73;31.00;;;11.20;99.90;;;;;;5113330;28;20202;-88
2022/10/14 07:07:45;;;;;;;107.57;31.17;;;11.80;1.00;;;;;;5065534;28;20198;-88
2022/10/14 07:10:12;;;;;;;108.37;30.90;;;12.20;99.90;;;;;;5112195;28;20233;-88
2022/10/14 07:12:39;;;;;;;112.10;31.33;;;12.40;99.90;;;;;;5112072;28;20202;-89
2022/10/14 07:15:07;;;;;;;115.45;31.98;;;12.60;99.90;;;;;;5115828;28;20190;-89
2022/10/14 07:18:15;;;;;;;111.20;31.47;;;12.80;99.90;;;;;;5115901;28;20210;-91
2022/10/14 07:21:11;;;;;;;112.60;31.65;;;13.00;99.90;;;;;;5107217;28;20209;-91
2022/10/14 07:26:55;;;;;;;110.97;30.90;;;13.50;99.90;;;;;;5099895;28;20739;-89
2022/10/14 07:29:35;;;;;;;112.60;31.27;;;13.80;99.90;;;;;;5117022;28;20187;-92
2022/10/14 07:32:03;;;;;;;108.75;30.83;;;14.00;99.90;;;;;;5115816;28;20175;-89
2022/10/14 07:34:32;;;;;;;113.18;30.33;;;14.30;99.90;;;;;;5115717;28;20191;-88
2022/10/14 07:36:59;;;;;;;121.13;32.58;;;14.60;99.70;;;;;;5115252;28;20258;-89
2022/10/14 07:39:28;;;;;;;126.03;33.17;;;14.70;71.60;;;;;;5116464;28;20175;-88
2022/10/14 07:41:55;;;;;;;127.60;33.05;;;14.70;1.00;;;;;;5115442;28;20556;-89
2022/10/14 07:44:22;;;;;;;124.78;32.75;;;14.90;2.00;;;;;;5115371;28;20206;-88
2022/10/14 07:46:50;;;;;;;130.60;33.25;;;15.00;1.00;;;;;;5115228;28;20289;-88
2022/10/14 07:49:20;;;;;;;127.70;32.92;;;14.90;1.00;;;;;;5117799;28;20198;-89
2022/10/14 07:51:48;;;;;;;127.15;32.92;;;14.80;1.00;;;;;;5115527;28;20190;-88
2022/10/14 07:54:17;;;;;;;127.90;32.95;;;14.70;1.00;;;;;;5114949;28;20195;-88
2022/10/14 07:56:48;;;;;;;129.30;33.42;;;14.60;1.00;;;;;;5115112;28;20206;-88
2022/10/14 07:59:15;;;;;;;138.48;34.20;;;14.70;1.00;;;;;;5115024;28;20646;-88
2022/10/14 08:02:03;;;;;;;128.70;35.90;;;15.10;11.00;;;;;;5116111;28;20204;-90
2022/10/14 08:04:30;;;;;;;129.75;33.35;;;16.00;37.60;;;;;;5114546;28;20395;-89
2022/10/14 08:07:05;;;;;;;138.43;34.30;;;16.80;1.00;;;;;;5114906;28;20179;-90
2022/10/14 08:09:35;;;;;;;141.00;35.00;;;17.70;1.00;;;;;;5116491;28;20054;-88
2022/10/14 08:12:04;;;;;;;151.73;36.30;;;18.50;1.00;;;;;;5116729;28;20057;-87
2022/10/14 08:14:31;;;;;;;147.80;35.80;;;19.20;1.00;;;;;;5114833;28;20640;-88
2022/10/14 08:17:23;;;;;;;77.30;28.27;;;19.70;1.00;;;;;;5117085;28;20228;-91
2022/10/14 08:19:58;;;;;;;;;;;20.20;1.00;;;;;;5114495;28;20209;-90
2022/10/14 08:22:25;;;;;;;117.05;32.10;;;20.60;1.00;;;;;;5118593;28;20059;-90
2022/10/14 08:25:01;;;;;;;90.35;29.30;;;20.80;1.00;;;;;;5113958;28;20202;-88
2022/10/14 08:27:30;;;;;;;87.10;28.95;;;20.60;1.00;;;;;;5114311;28;20179;-89
2022/10/14 08:29:57;;;;;;;81.97;28.38;;;20.30;1.00;;;;;;5114601;28;20190;-89
2022/10/14 08:32:24;;;;;;;83.38;28.40;;;19.90;1.00;;;;;;5114675;28;20202;-89
2022/10/14 08:34:51;;;;;;;75.13;27.45;;;19.80;1.00;;;;;;5114268;28;20202;-89
2022/10/14 08:37:18;;;;;;;73.35;27.23;;;19.60;1.00;;;;;;5116354;28;20779;-88
2022/10/14 08:39:53;;;;;;;66.97;26.13;;;19.30;1.00;;;;;;5116422;28;20190;-91
2022/10/14 08:42:53;;;;;;;39.83;21.33;;;19.10;1.00;;;;;;5115815;28;20206;-91
2022/10/14 08:45:28;;;;;;;32.70;19.67;;;18.70;1.00;;;;;;5112123;28;20198;-88
2022/10/14 08:47:58;;;;;;;28.23;18.45;;;18.70;1.00;;;;;;5114307;28;20186;-88
2022/10/14 08:50:34;;;;;;;28.27;18.25;;;18.90;1.00;;;;;;5113877;28;20195;-91
2022/10/14 08:53:12;;;;;;;29.13;18.75;;;19.20;1.00;;;;;;5114566;28;20201;-91
2022/10/14 08:56:10;;;;;;;26.98;18.13;;;19.60;1.00;;;;;;5113746;28;20197;-91
2022/10/14 08:58:42;;;;;;;20.45;15.75;;;19.90;1.00;;;;;;5113321;28;20255;-88
2022/10/14 09:01:19;;;;;;;21.40;16.00;;;20.30;1.00;;;;;;5117182;28;20201;-90
2022/10/14 09:03:46;;;;;;;23.48;17.00;;;20.60;1.00;;;;;;5116753;28;20186;-88
2022/10/14 09:06:26;;;;;;;17.70;15.15;;;20.90;1.00;;;;;;5115606;28;20203;-90
2022/10/14 09:08:58;;;;;;;;;;;21.30;1.00;;;;;;5115690;28;19924;-91
2022/10/14 09:11:42;;;;;;;54.13;24.35;;;21.70;1.00;;;;;;5114538;28;20259;-92
2022/10/14 09:14:16;;;;;;;62.25;25.95;;;22.10;1.00;;;;;;5118405;28;20255;-88
2022/10/14 09:16:47;;;;;;;76.72;27.85;;;22.30;1.00;;;;;;5117033;28;20177;-89
2022/10/14 09:22:02;;;;;;;78.15;27.98;;;22.70;1.00;;;;;;5112491;28;20217;-89
2022/10/14 09:24:31;;;;;;;;;;;22.80;1.00;;;;;;5115257;28;20191;-89
2022/10/14 09:27:00;;;;;;;;;;;23.00;1.00;;;;;;5116908;28;19976;-90
2022/10/14 09:33:00;;;;;;;79.22;28.30;;;23.10;1.00;;;;;;5108783;28;20473;-90
2022/10/14 09:36:02;;;;;;;73.75;27.52;;;23.30;1.00;;;;;;5113213;28;20189;-92
2022/10/14 09:38:29;;;;;;;70.93;27.17;;;23.30;1.00;;;;;;5100573;28;20230;-88
2022/10/14 09:40:59;;;;;;;68.82;26.98;;;23.40;1.00;;;;;;5113096;28;20607;-87
2022/10/14 09:43:28;;;;;;;63.50;26.10;;;23.30;1.00;;;;;;5112985;28;20198;-87
2022/10/14 09:45:58;;;;;;;60.88;25.75;;;23.10;1.00;;;;;;5112687;28;20197;-87
2022/10/14 09:48:36;;;;;;;55.35;24.58;;;23.00;1.00;;;;;;5112676;28;20186;-87
2022/10/14 09:51:06;;;;;;;51.08;23.90;;;22.90;1.00;;;;;;5113098;28;20168;-88
2022/10/14 09:53:39;;;;;;;52.40;24.02;;;22.70;1.00;;;;;;5117022;28;20183;-92
2022/10/14 09:56:08;;;;;;;50.53;23.83;;;22.30;1.00;;;;;;5118509;28;20203;-89
2022/10/14 09:58:39;;;;;;;48.97;23.33;;;22.10;1.00;;;;;;5115230;28;20210;-89
2022/10/14 10:01:11;;;;;;;46.20;22.67;;;21.90;1.00;;;;;;5112488;28;20188;-87
2022/10/14 10:03:40;;;;;;;40.50;21.65;;;21.70;1.00;;;;;;5113579;28;20188;-87
2022/10/14 10:06:10;;;;;;;30.42;19.20;;;21.40;1.00;;;;;;5112725;28;20191;-88
2022/10/14 10:08:40;;;;;;;24.90;17.25;;;21.30;1.00;;;;;;5116748;28;20190;-90
2022/10/14 10:11:09;;;;;;;21.42;16.15;;;21.20;1.00;;;;;;5112411;28;20635;-87
2022/10/14 10:13:43;;;;;;;14.60;13.10;;;21.00;1.00;;;;;;5113794;28;20231;-87
2022/10/14 10:16:20;;;;;;;13.50;12.18;;;20.90;1.00;;;;;;5112732;28;20212;-87
2022/10/14 10:18:50;;;;;;;20.67;15.82;;;20.80;1.00;;;;;;5112360;28;20206;-88
2022/10/14 10:21:19;;;;;;;20.40;15.93;;;20.70;1.00;;;;;;5112717;28;20195;-87
2022/10/14 10:23:58;;;;;;;21.08;15.93;;;20.60;1.00;;;;;;5112394;28;20267;-87
2022/10/14 10:26:29;;;;;;;20.73;15.90;;;20.50;1.00;;;;;;5112638;28;20659;-87
2022/10/14 10:28:57;;;;;;;19.30;15.40;;;20.40;1.00;;;;;;5114226;28;20218;-87
2022/10/14 10:31:48;;;;;;;19.83;15.65;;;20.30;1.00;;;;;;5116627;28;20709;-88
2022/10/14 10:34:48;;;;;;;18.60;15.18;;;20.30;1.00;;;;;;5113728;28;20646;-89
2022/10/14 10:37:24;;;;;;;16.00;13.82;;;20.20;1.00;;;;;;5113527;28;20222;-88
2022/10/14 10:40:08;;;;;;;15.00;13.40;;;20.10;1.00;;;;;;5112513;28;20187;-88
2022/10/14 10:42:57;;;;;;;14.85;13.25;;;20.00;1.00;;;;;;5115424;28;20195;-88
2022/10/14 10:45:35;;;;;;;15.00;13.40;;;19.90;1.00;;;;;;5116509;28;20267;-87
2022/10/14 10:48:10;;;;;;;15.30;13.65;;;19.80;1.00;;;;;;5113344;28;20192;-87
2022/10/14 10:50:48;;;;;;;15.57;13.93;;;19.70;1.00;;;;;;5116188;28;20185;-88
2022/10/14 10:53:37;;;;;;;15.38;13.68;;;19.70;1.00;;;;;;5119059;28;20174;-88
2022/10/14 10:56:17;;;;;;;15.38;13.75;;;19.70;1.00;;;;;;5117758;28;20209;-89
2022/10/14 10:59:05;;;;;;;14.23;12.77;;;19.70;1.00;;;;;;5118050;28;20279;-87
2022/10/14 11:04:33;;;;;;;14.93;13.38;;;19.60;1.00;;;;;;5121861;28;20707;-86
2022/10/14 11:13:01;;;;;;;15.07;13.48;;;19.70;1.00;;;;;;5117853;28;20182;-87
2022/10/14 11:15:42;;;;;;;14.55;13.02;;;19.60;1.00;;;;;;5116006;28;20187;-87
2022/10/14 11:18:11;;;;;;;15.35;13.55;;;19.50;1.00;;;;;;5115857;28;20241;-87
2022/10/14 11:20:48;;;;;;;15.32;13.63;;;19.50;1.00;;;;;;5115867;28;20191;-88
2022/10/14 11:23:45;;;;;;;15.00;13.43;;;19.50;1.00;;;;;;5115786;28;20186;-87
2022/10/14 11:26:33;;;;;;;14.65;13.15;;;19.50;1.00;;;;;;5115449;28;20635;-88
2022/10/14 11:29:12;;;;;;;14.77;13.25;;;19.60;1.00;;;;;;5115735;28;20218;-87
2022/10/14 11:31:49;;;;;;;15.07;13.48;;;19.60;1.00;;;;;;5116854;28;20189;-89
2022/10/14 11:34:39;;;;;;;15.68;13.93;;;19.50;1.00;;;;;;5118611;28;20190;-88
2022/10/14 11:37:16;;;;;;;15.77;13.85;;;19.60;1.00;;;;;;5116870;28;20200;-88
2022/10/14 11:39:53;;;;;;;17.42;14.65;;;19.70;1.00;;;;;;5115347;28;20572;-89
2022/10/14 11:42:29;;;;;;;16.73;14.30;;;19.80;1.00;;;;;;5116232;28;20551;-88
2022/10/14 11:45:07;;;;;;;15.90;13.95;;;20.00;1.00;;;;;;5120973;28;20626;-87
2022/10/14 11:47:38;;;;;;;15.93;13.85;;;19.90;1.00;;;;;;5115096;28;20214;-87
2022/10/14 11:50:17;;;;;;;16.50;14.20;;;19.90;1.00;;;;;;5115459;28;20187;-87
2022/10/14 11:52:58;;;;;;;17.30;14.52;;;19.80;1.00;;;;;;5116199;28;20171;-92
2022/10/14 11:55:32;;;;;;;17.27;14.55;;;19.70;1.00;;;;;;5125343;28;20599;-87
2022/10/14 11:58:05;;;;;;;17.02;14.35;;;19.80;1.00;;;;;;5115762;28;20214;-88
2022/10/14 12:00:52;;;;;;;16.13;14.05;;;19.80;1.00;;;;;;5114235;28;20179;-88
2022/10/14 12:03:26;;;;;;;14.45;12.95;;;19.70;1.00;;;;;;5121991;28;20248;-88
2022/10/14 12:06:03;;;;;;;15.50;13.77;;;19.50;1.00;;;;;;5117401;28;20186;-91
2022/10/14 12:08:34;;;;;;;14.25;12.77;;;19.30;1.00;;;;;;5115161;28;20650;-86
2022/10/14 12:11:07;;;;;;;14.60;13.10;;;19.20;1.00;;;;;;5117827;28;20179;-89
2022/10/14 12:13:40;;;;;;;14.85;13.32;;;19.20;1.00;;;;;;5114019;28;20197;-89
2022/10/14 12:16:14;;;;;;;14.50;13.00;;;19.30;1.00;;;;;;5115474;28;20183;-90
2022/10/14 12:18:43;;;;;;;14.13;12.70;;;19.20;1.00;;;;;;5114902;28;20198;-87
2022/10/14 12:21:18;;;;;;;14.80;13.25;;;19.10;1.00;;;;;;5114504;28;20190;-87
2022/10/14 12:23:49;;;;;;;14.65;13.13;;;19.20;1.00;;;;;;5116202;28;20186;-88
2022/10/14 12:26:50;;;;;;;14.50;13.02;;;19.30;1.00;;;;;;5116270;28;20179;-91
2022/10/14 12:32:26;;;;;;;14.60;13.10;;;19.40;1.00;;;;;;5112757;28;20202;-87
2022/10/14 12:34:54;;;;;;;14.68;13.18;;;19.50;1.00;;;;;;5116732;28;20277;-88
2022/10/14 12:37:53;;;;;;;14.30;12.88;;;19.60;1.00;;;;;;5113872;28;20674;-89
2022/10/14 12:40:30;;;;;;;13.95;12.55;;;19.60;1.00;;;;;;5114019;28;20214;-88
2022/10/14 12:43:22;;;;;;;13.95;12.57;;;19.70;1.00;;;;;;5114130;28;20174;-88
2022/10/14 12:46:10;;;;;;;13.60;12.30;;;19.70;1.00;;;;;;5114272;28;20210;-88
2022/10/14 12:48:45;;;;;;;13.75;12.43;;;19.60;1.00;;;;;;5115290;28;20703;-89
2022/10/14 12:51:15;;;;;;;13.70;12.40;;;19.60;1.00;;;;;;5114601;28;20646;-88
2022/10/14 12:54:04;;;;;;;13.35;12.07;;;19.50;1.00;;;;;;5118912;28;20199;-88
2022/10/14 12:56:36;;;;;;;13.48;12.20;;;19.40;1.00;;;;;;5102906;28;20228;-86
2022/10/14 12:59:07;;;;;;;14.02;12.63;;;19.30;1.00;;;;;;5118330;28;20194;-87
2022/10/14 13:01:35;;;;;;;7.07;6.63;;;19.20;1.00;;;;;;5117143;28;20743;-89
2022/10/14 13:04:13;;;;;;;;;;;19.10;1.00;;;;;;5117696;28;20237;-91
2022/10/14 13:06:42;;;;;;;28.67;18.42;;;19.10;1.00;;;;;;5118247;28;20412;-87
2022/10/14 13:09:42;;;;;;;15.95;14.50;;;19.10;1.00;;;;;;5122909;28;20205;-90
2022/10/14 13:12:49;;;;;;;12.40;11.35;;;19.10;1.00;;;;;;5130705;28;20191;-90
2022/10/14 13:15:49;;;;;;;12.27;11.27;;;19.10;1.00;;;;;;5116122;28;20260;-88
2022/10/14 13:18:34;;;;;;;;;;;19.00;1.00;;;;;;5117689;28;20492;-88
2022/10/14 13:21:01;;;;;;;;;;;19.00;1.00;;;;;;5116716;28;19920;-86
2022/10/14 13:23:31;;;;;;;;;;;18.90;1.00;;;;;;5116448;28;19920;-86
2022/10/14 13:26:06;;;;;;;;;;;18.80;1.00;;;;;;5118205;28;19926;-87
2022/10/14 13:28:35;;;;;;;;;;;18.70;1.00;;;;;;5117818;28;19934;-87
2022/10/14 13:31:06;;;;;;;;;;;18.60;1.00;;;;;;5117997;28;19923;-87
2022/10/14 13:33:37;;;;;;;;;;;18.60;1.00;;;;;;5117321;28;20318;-88
2022/10/14 13:36:10;;;;;;;;;;;18.60;1.00;;;;;;5118001;28;19955;-86
2022/10/14 13:38:38;;;;;;;;;;;18.60;1.00;;;;;;5119045;28;19972;-87
2022/10/14 13:41:06;;;;;;;;;;;18.70;1.00;;;;;;5118432;28;19930;-88
2022/10/14 13:43:36;;;;;;;;;;;18.70;1.00;;;;;;5118146;28;19919;-89
2022/10/14 13:46:05;;;;;;;;;;;18.60;1.00;;;;;;5118238;28;19969;-89
2022/10/14 13:48:34;;;;;;;;;;;18.60;1.00;;;;;;5118219;28;20262;-88
2022/10/14 13:51:07;;;;;;;;;;;18.60;1.00;;;;;;5118167;28;19920;-87
2022/10/14 13:53:34;;;;;;;;;;;18.50;1.00;;;;;;5120273;28;19920;-88
2022/10/14 13:56:01;;;;;;;;;;;18.40;1.00;;;;;;5119461;28;19923;-86
2022/10/14 13:58:28;;;;;;;;;;;18.40;1.00;;;;;;5114769;28;19946;-85
2022/10/14 14:01:05;;;;;;;27.73;17.92;;;18.30;1.00;;;;;;5116797;28;20189;-85
2022/10/14 14:03:36;;;;;;;25.40;17.30;;;18.20;1.00;;;;;;5119135;28;20209;-86